Time;durP1;ratioP1;P1;durP2;ratioP2;P2;SDS_P1;SDS_P2;PMS_P1;PMS_P2;Temp;Humidity;BMP_temperature;BMP_pressure;BME280_temperature;BME280_humidity;BME280_pressure;Samples;Min_cycle;Max_cycle;Signal;HPM_P1;HPM_P2
2022/09/27 00:01:35;;;;;;;9.30;6.93;;;;;;;15.67;100.00;92238.53;5120554;27;20054;-71
2022/09/27 00:04:02;;;;;;;7.78;6.80;;;;;;;15.69;100.00;92246.03;5130593;27;20460;-72
2022/09/27 00:06:31;;;;;;;9.90;6.93;;;;;;;15.70;100.00;92245.75;5130481;27;20047;-71
2022/09/27 00:08:58;;;;;;;6.95;5.90;;;;;;;15.68;100.00;92245.25;5130140;27;20047;-71
2022/09/27 00:11:27;;;;;;;7.25;5.65;;;;;;;15.69;100.00;92251.97;5130619;27;20051;-71
2022/09/27 00:13:55;;;;;;;6.90;6.03;;;;;;;15.62;100.00;92238.56;5102908;27;20051;-71
2022/09/27 00:16:24;;;;;;;7.35;5.22;;;;;;;15.70;100.00;92255.34;5130000;27;20047;-71
2022/09/27 00:18:51;;;;;;;7.55;5.15;;;;;;;15.78;100.00;92270.31;5128755;27;20047;-71
2022/09/27 00:21:18;;;;;;;8.23;5.32;;;;;;;15.82;100.00;92271.34;5101511;28;20040;-71
2022/09/27 00:23:45;;;;;;;5.70;4.60;;;;;;;15.79;100.00;92271.13;5100576;27;20051;-71
2022/09/27 00:26:13;;;;;;;6.32;5.10;;;;;;;15.80;100.00;92267.47;5130309;27;20043;-71
2022/09/27 00:28:40;;;;;;;6.47;4.90;;;;;;;15.82;100.00;92270.56;5129690;27;20413;-71
2022/09/27 00:31:19;;;;;;;6.68;5.40;;;;;;;15.82;100.00;92266.19;5130354;28;20047;-71
2022/09/27 00:33:47;;;;;;;6.57;5.40;;;;;;;15.84;100.00;92255.56;5129881;28;20040;-71
2022/09/27 00:36:14;;;;;;;6.72;5.00;;;;;;;15.85;100.00;92255.31;5130049;28;20531;-71
2022/09/27 00:38:41;;;;;;;5.68;4.82;;;;;;;15.84;100.00;92261.50;5129462;28;20088;-71
2022/09/27 00:41:13;;;;;;;9.25;5.75;;;;;;;15.80;100.00;92252.72;5129991;28;20092;-71
2022/09/27 00:43:47;;;;;;;7.97;6.05;;;;;;;15.81;100.00;92248.31;5129863;28;20160;-71
2022/09/27 00:46:18;;;;;;;9.35;5.97;;;;;;;15.79;100.00;92240.81;5130083;28;20454;-71
2022/09/27 00:48:48;;;;;;;9.90;5.70;;;;;;;15.82;100.00;92240.28;5130008;28;20103;-71
2022/09/27 00:51:15;;;;;;;6.88;5.40;;;;;;;15.75;100.00;92243.16;5129904;28;20081;-71
2022/09/27 00:53:45;;;;;;;6.80;5.05;;;;;;;15.70;100.00;92227.63;5129606;28;20510;-71
2022/09/27 00:56:18;;;;;;;6.95;5.00;;;;;;;15.78;100.00;92241.84;5102819;28;20051;-70
2022/09/27 00:58:50;;;;;;;7.85;5.65;;;;;;;15.77;100.00;92242.88;5130017;28;20043;-70
2022/09/27 01:01:17;;;;;;;6.55;5.30;;;;;;;15.76;100.00;92238.75;5124273;28;20464;-70
2022/09/27 01:03:51;;;;;;;8.77;5.60;;;;;;;15.82;100.00;92247.25;5129708;28;20047;-70
2022/09/27 01:06:20;;;;;;;8.82;5.18;;;;;;;15.81;100.00;92233.56;5129752;28;20505;-70
2022/09/27 01:08:47;;;;;;;9.82;6.20;;;;;;;15.82;100.00;92221.38;5129778;28;20096;-71
2022/09/27 01:11:23;;;;;;;9.82;5.53;;;;;;;15.81;100.00;92233.56;5131438;27;20548;-70
2022/09/27 01:14:04;;;;;;;7.38;5.80;;;;;;;15.78;100.00;92215.94;5133740;27;20047;-70
2022/09/27 01:16:37;;;;;;;10.73;6.05;;;;;;;15.76;100.00;92220.63;5133519;27;20452;-70
2022/09/27 01:19:16;;;;;;;10.00;7.57;;;;;;;15.69;100.00;92215.72;5130534;27;20548;-71
2022/09/27 01:21:55;;;;;;;8.55;7.00;;;;;;;15.73;100.00;92218.56;5124519;27;20050;-71
2022/09/27 01:24:50;;;;;;;10.75;7.63;;;;;;;15.70;100.00;92219.88;5133527;27;20084;-71
2022/09/27 01:27:56;;;;;;;10.73;7.40;;;;;;;15.74;100.00;92235.66;5133610;27;20092;-71
2022/09/27 01:30:28;;;;;;;11.00;7.15;;;;;;;15.72;100.00;92235.94;5109008;27;20108;-71
2022/09/27 01:33:12;;;;;;;10.55;8.73;;;;;;;15.65;100.00;92230.28;5133486;27;20042;-70
2022/09/27 01:35:56;;;;;;;11.65;7.85;;;;;;;15.70;100.00;92230.22;5133108;27;20051;-71
2022/09/27 01:38:30;;;;;;;12.45;8.57;;;;;;;15.70;100.00;92238.00;5133243;27;20047;-70
2022/09/27 01:41:04;;;;;;;12.30;8.30;;;;;;;15.56;100.00;92211.91;5133060;27;20067;-71
2022/09/27 01:43:36;;;;;;;14.63;8.85;;;;;;;15.65;100.00;92225.09;5133132;27;20607;-71
2022/09/27 01:46:08;;;;;;;11.77;8.25;;;;;;;15.63;100.00;92227.16;5133040;27;20073;-71
2022/09/27 01:48:41;;;;;;;15.48;8.23;;;;;;;15.66;100.00;92224.03;5133061;27;20585;-71
2022/09/27 01:51:11;;;;;;;13.48;9.20;;;;;;;15.65;100.00;92227.69;5132758;27;20043;-71
2022/09/27 01:53:41;;;;;;;15.90;8.68;;;;;;;15.45;100.00;92195.66;5132945;27;20566;-71
2022/09/27 01:56:13;;;;;;;11.80;9.48;;;;;;;15.65;100.00;92219.91;5133058;27;20135;-70
2022/09/27 01:58:44;;;;;;;13.23;9.95;;;;;;;15.65;100.00;92219.91;5132985;27;20099;-71
2022/09/27 02:01:14;;;;;;;12.57;9.88;;;;;;;15.66;100.00;92213.69;5123596;27;20047;-71
2022/09/27 02:03:46;;;;;;;16.05;10.05;;;;;;;15.67;100.00;92206.69;5104756;27;20388;-71
2022/09/27 02:06:17;;;;;;;13.90;9.63;;;;;;;15.60;100.00;92192.22;5132862;27;20096;-71
2022/09/27 02:08:46;;;;;;;12.20;9.23;;;;;;;15.55;100.00;92186.31;5132742;27;20077;-71
2022/09/27 02:11:14;;;;;;;16.38;10.45;;;;;;;15.52;100.00;92184.22;5132481;27;20511;-71
2022/09/27 02:13:47;;;;;;;14.85;10.38;;;;;;;15.44;100.00;92188.16;5132470;27;20057;-71
2022/09/27 02:16:23;;;;;;;12.93;10.35;;;;;;;15.45;100.00;92179.34;5132574;27;20043;-71
2022/09/27 02:19:02;;;;;;;16.02;10.40;;;;;;;15.49;100.00;92167.41;5131620;27;20108;-71
2022/09/27 02:21:38;;;;;;;10.70;8.95;;;;;;;15.36;100.00;92148.84;5120813;27;20541;-71
2022/09/27 02:24:06;;;;;;;;;;;;;;;15.43;100.00;92155.53;5098793;28;20048;-71
2022/09/27 02:26:38;;;;;;;12.90;9.75;;;;;;;15.38;100.00;92148.59;5120172;27;19919;-71
2022/09/27 02:29:09;;;;;;;13.82;10.30;;;;;;;15.31;100.00;92132.56;5132175;27;20039;-71
2022/09/27 02:31:37;;;;;;;11.45;10.23;;;;;;;15.34;100.00;92148.34;5132189;27;20079;-71
2022/09/27 02:34:08;;;;;;;12.35;9.25;;;;;;;15.30;100.00;92146.53;5132393;27;20047;-71
2022/09/27 02:36:36;;;;;;;11.75;9.10;;;;;;;15.26;100.00;92151.47;5132331;27;20051;-70
2022/09/27 02:39:03;;;;;;;12.63;9.88;;;;;;;15.30;100.00;92149.91;5131970;27;20159;-70
2022/09/27 02:41:30;;;;;;;18.23;9.43;;;;;;;15.30;100.00;92143.94;5131955;27;20545;-71
2022/09/27 02:44:00;;;;;;;13.45;9.40;;;;;;;15.30;100.00;92156.88;5131800;27;20035;-71
2022/09/27 02:46:56;;;;;;;13.48;9.20;;;;;;;15.29;100.00;92150.16;5132183;27;20171;-71
2022/09/27 02:49:43;;;;;;;10.90;9.45;;;;;;;15.35;100.00;92155.06;5103339;27;20088;-71
2022/09/27 02:52:23;;;;;;;12.65;8.88;;;;;;;15.37;100.00;92152.22;5131927;27;20039;-71
2022/09/27 02:54:59;;;;;;;10.30;8.20;;;;;;;15.32;100.00;92134.13;5131663;27;20043;-71
2022/09/27 02:57:32;;;;;;;;;;;;;;;15.38;100.00;92138.25;5132272;27;20455;-71
2022/09/27 03:00:06;;;;;;;12.02;8.57;;;;;;;15.29;100.00;92126.88;5131645;27;19923;-70
2022/09/27 03:02:43;;;;;;;14.07;7.82;;;;;;;15.34;100.00;92121.69;5124357;27;20055;-71
2022/09/27 03:05:15;;;;;;;11.18;8.38;;;;;;;15.35;100.00;92118.06;5129612;27;20043;-71
2022/09/27 03:07:43;;;;;;;11.50;8.25;;;;;;;15.33;100.00;92107.22;5116694;27;20091;-71
2022/09/27 03:10:16;;;;;;;10.65;8.05;;;;;;;15.30;100.00;92102.56;5131681;27;20500;-71
2022/09/27 03:12:43;;;;;;;12.93;8.38;;;;;;;15.29;100.00;92111.38;5131717;27;20039;-71
2022/09/27 03:15:10;;;;;;;10.35;8.02;;;;;;;15.22;100.00;92096.13;5120493;27;20040;-71
2022/09/27 03:17:38;;;;;;;11.43;9.00;;;;;;;15.20;100.00;92096.41;5114150;27;20138;-71
2022/09/27 03:20:05;;;;;;;12.65;8.30;;;;;;;15.17;100.00;92086.56;5119461;27;20039;-71
2022/09/27 03:22:32;;;;;;;11.35;9.60;;;;;;;15.13;100.00;92082.22;5128566;27;20088;-71
2022/09/27 03:24:59;;;;;;;13.45;8.95;;;;;;;15.16;100.00;92079.88;5131207;27;20151;-71
2022/09/27 03:27:26;;;;;;;12.52;9.27;;;;;;;15.20;100.00;92080.88;5131230;27;20132;-71
2022/09/27 03:29:52;;;;;;;11.52;8.98;;;;;;;15.14;100.00;92079.34;5130942;27;20100;-71
2022/09/27 03:32:19;;;;;;;15.65;9.77;;;;;;;15.16;100.00;92073.91;5131047;27;20107;-70
2022/09/27 03:34:47;;;;;;;12.18;9.48;;;;;;;15.16;100.00;92066.16;5130807;27;20054;-71
2022/09/27 03:37:14;;;;;;;14.15;10.70;;;;;;;15.15;100.00;92059.44;5130815;27;20058;-70
2022/09/27 03:39:41;;;;;;;13.18;9.25;;;;;;;15.16;100.00;92069.50;5130769;27;20051;-71
2022/09/27 03:42:07;;;;;;;12.65;9.20;;;;;;;15.13;100.00;92064.09;5130821;27;20092;-70
2022/09/27 03:44:34;;;;;;;13.20;10.23;;;;;;;15.14;100.00;92079.34;5130971;27;20099;-70
2022/09/27 03:47:01;;;;;;;11.35;9.85;;;;;;;15.16;100.00;92089.44;5130518;27;20043;-71
2022/09/27 03:49:28;;;;;;;11.93;9.43;;;;;;;15.14;100.00;92087.09;5130886;27;20092;-71
2022/09/27 03:51:56;;;;;;;9.82;8.63;;;;;;;15.18;100.00;92087.38;5130854;27;20788;-71
2022/09/27 03:54:23;;;;;;;11.20;9.10;;;;;;;15.12;100.00;92084.00;5130648;27;20437;-71
2022/09/27 03:56:51;;;;;;;10.40;8.52;;;;;;;15.19;100.00;92087.06;5130779;27;20425;-71
2022/09/27 03:59:18;;;;;;;10.40;8.60;;;;;;;15.24;100.00;92081.13;5130473;27;20096;-71
2022/09/27 04:01:44;;;;;;;10.48;8.80;;;;;;;15.27;100.00;92087.59;5120829;27;20112;-71
2022/09/27 04:04:11;;;;;;;12.50;8.57;;;;;;;15.23;100.00;92092.50;5130728;27;20051;-71
2022/09/27 04:06:38;;;;;;;12.13;8.90;;;;;;;15.31;100.00;92079.00;5130548;27;20444;-71
2022/09/27 04:09:06;;;;;;;18.50;11.27;;;;;;;15.33;100.00;92078.75;5130313;27;20445;-71
2022/09/27 04:11:33;;;;;;;11.57;8.63;;;;;;;15.31;100.00;92063.50;5130413;27;20051;-71
2022/09/27 04:14:00;;;;;;;9.23;7.50;;;;;;;15.36;100.00;92070.44;5130144;27;20093;-70
2022/09/27 04:16:27;;;;;;;11.07;8.20;;;;;;;15.39;100.00;92067.34;5130200;27;20046;-70
2022/09/27 04:18:54;;;;;;;9.68;7.47;;;;;;;15.39;100.00;92076.91;5128686;27;20092;-71
2022/09/27 04:21:21;;;;;;;8.05;6.85;;;;;;;15.36;100.00;92071.22;5117771;27;20043;-71
2022/09/27 04:23:48;;;;;;;9.25;7.63;;;;;;;15.39;100.00;92071.72;5130418;27;20103;-71
2022/09/27 04:26:16;;;;;;;9.90;7.05;;;;;;;15.38;100.00;92070.19;5101695;27;20627;-71
2022/09/27 04:28:43;;;;;;;12.50;6.72;;;;;;;15.37;100.00;92082.38;5130222;27;20047;-71
2022/09/27 04:31:09;;;;;;;9.75;6.85;;;;;;;15.42;100.00;92089.31;5130147;27;20396;-71
2022/09/27 04:33:36;;;;;;;9.30;7.15;;;;;;;15.45;100.00;92083.59;5130295;27;20096;-72
2022/09/27 04:38:47;;;;;;;9.95;7.72;;;;;;;15.48;100.00;92096.78;5130043;28;20180;-71
2022/09/27 04:41:16;;;;;;;10.18;7.25;;;;;;;15.54;100.00;92107.88;5129846;28;20042;-71
2022/09/27 04:43:42;;;;;;;11.15;7.95;;;;;;;15.56;100.00;92112.78;5129753;28;20047;-71
2022/09/27 04:46:09;;;;;;;16.80;7.88;;;;;;;15.57;100.00;92106.56;5131685;27;20043;-71
2022/09/27 04:48:36;;;;;;;11.45;8.05;;;;;;;15.53;100.00;92111.50;5119970;27;20039;-71
2022/09/27 04:51:04;;;;;;;12.30;7.95;;;;;;;15.50;100.00;92115.41;5108934;27;20043;-71
2022/09/27 04:53:31;;;;;;;11.98;8.50;;;;;;;15.46;100.00;92104.03;5120696;27;20039;-71
2022/09/27 04:56:01;;;;;;;16.80;8.18;;;;;;;15.35;100.00;92100.72;5126991;27;20600;-71
2022/09/27 04:58:29;;;;;;;13.10;8.60;;;;;;;15.29;100.00;92088.88;5106957;27;20115;-71
2022/09/27 05:00:56;;;;;;;11.23;8.40;;;;;;;15.05;100.00;92052.50;5122210;27;20050;-71
2022/09/27 05:03:23;;;;;;;18.10;10.45;;;;;;;15.19;100.00;92084.50;5133273;27;20099;-71
2022/09/27 05:05:50;;;;;;;17.40;10.35;;;;;;;15.15;100.00;92074.94;5133828;27;20047;-71
2022/09/27 05:08:17;;;;;;;24.88;15.38;;;;;;;15.12;100.00;92078.84;5129403;27;20120;-71
2022/09/27 05:10:43;;;;;;;23.77;15.35;;;;;;;15.14;100.00;92078.56;5133657;27;20495;-71
2022/09/27 05:13:10;;;;;;;26.60;16.80;;;;;;;15.16;100.00;92085.03;5133915;27;20103;-71
2022/09/27 05:15:39;;;;;;;17.20;10.23;;;;;;;15.17;100.00;92084.00;5133895;27;20509;-71
2022/09/27 05:18:07;;;;;;;13.05;9.18;;;;;;;15.18;100.00;92077.03;5133855;27;20460;-71
2022/09/27 05:20:34;;;;;;;14.10;10.27;;;;;;;15.19;100.00;92074.16;5119186;27;20414;-70
2022/09/27 05:23:02;;;;;;;12.98;9.35;;;;;;;15.18;100.00;92072.59;5133624;27;20043;-71
2022/09/27 05:25:30;;;;;;;10.52;8.50;;;;;;;15.20;100.00;92067.94;5133808;27;20447;-71
2022/09/27 05:27:57;;;;;;;10.40;7.82;;;;;;;15.19;100.00;92056.03;5133730;27;20079;-70
2022/09/27 05:30:24;;;;;;;10.02;8.10;;;;;;;15.18;100.00;92067.44;5133560;27;20104;-70
2022/09/27 05:32:52;;;;;;;13.93;8.20;;;;;;;15.20;100.00;92077.50;5133459;27;20039;-70
2022/09/27 05:35:20;;;;;;;11.25;7.43;;;;;;;15.19;100.00;92081.91;5107878;27;20432;-70
2022/09/27 05:37:51;;;;;;;8.38;7.10;;;;;;;15.20;100.00;92082.69;5102814;28;20450;-71
2022/09/27 05:40:18;;;;;;;9.27;7.82;;;;;;;15.20;100.00;92080.09;5108790;27;20047;-70
2022/09/27 05:42:46;;;;;;;9.50;8.13;;;;;;;15.20;100.00;92067.94;5104933;27;20092;-70
2022/09/27 05:45:13;;;;;;;9.50;7.60;;;;;;;15.20;100.00;92067.16;5126322;27;20043;-71
2022/09/27 05:47:39;;;;;;;8.88;7.05;;;;;;;15.09;100.00;92072.38;5132769;27;20134;-70
2022/09/27 05:50:08;;;;;;;7.85;6.95;;;;;;;15.16;100.00;92076.50;5133261;27;20054;-71
2022/09/27 05:52:35;;;;;;;8.07;7.13;;;;;;;15.12;100.00;92065.91;5132796;27;20050;-71
2022/09/27 05:55:02;;;;;;;12.02;7.63;;;;;;;15.14;100.00;92057.88;5132761;27;20429;-70
2022/09/27 05:57:29;;;;;;;11.27;7.90;;;;;;;15.16;100.00;92072.09;5123276;27;20080;-70
2022/09/27 05:59:55;;;;;;;9.80;7.95;;;;;;;14.96;100.00;92044.53;5133157;27;20055;-70
2022/09/27 06:02:22;;;;;;;9.40;8.10;;;;;;;15.17;100.00;92076.22;5132699;27;20491;-70
2022/09/27 06:04:49;;;;;;;11.60;7.93;;;;;;;15.16;100.00;92061.75;5132963;27;20547;-70
2022/09/27 06:07:19;;;;;;;9.85;7.65;;;;;;;15.13;100.00;92054.53;5132520;27;20046;-70
2022/09/27 06:09:46;;;;;;;10.10;7.93;;;;;;;15.20;100.00;92067.94;5131204;27;20148;-71
2022/09/27 06:12:13;;;;;;;9.23;7.90;;;;;;;15.27;100.00;92070.22;5120816;27;20558;-71
2022/09/27 06:14:39;;;;;;;10.52;8.00;;;;;;;15.33;100.00;92073.56;5121538;27;20490;-70
2022/09/27 06:17:06;;;;;;;11.52;8.15;;;;;;;15.31;100.00;92060.13;5132097;27;20112;-71
2022/09/27 06:19:34;;;;;;;12.73;8.82;;;;;;;15.39;100.00;92072.50;5125472;27;20540;-71
2022/09/27 06:22:01;;;;;;;9.57;7.82;;;;;;;15.49;100.00;92087.19;5125232;27;20699;-71
2022/09/27 06:24:29;;;;;;;10.35;7.25;;;;;;;15.45;100.00;92078.41;5132502;27;20043;-71
2022/09/27 06:26:55;;;;;;;10.30;8.50;;;;;;;15.49;100.00;92071.66;5132788;27;20055;-71
2022/09/27 06:29:22;;;;;;;11.18;8.13;;;;;;;15.47;100.00;92079.69;5131832;27;20948;-71
2022/09/27 06:31:49;;;;;;;9.63;7.80;;;;;;;15.47;100.00;92077.09;5129954;27;20054;-71
2022/09/27 06:34:16;;;;;;;9.95;8.45;;;;;;;15.40;100.00;92083.63;5128319;27;20100;-71
2022/09/27 06:36:42;;;;;;;12.43;9.10;;;;;;;15.43;100.00;92085.69;5131786;27;20495;-71
2022/09/27 06:39:09;;;;;;;10.38;8.15;;;;;;;15.41;100.00;92080.00;5131557;27;20519;-71
2022/09/27 06:41:37;;;;;;;14.02;8.15;;;;;;;15.33;100.00;92068.41;5124747;27;20048;-71
2022/09/27 06:44:04;;;;;;;9.80;8.10;;;;;;;15.38;100.00;92067.59;5112007;27;20054;-71
2022/09/27 06:46:31;;;;;;;11.85;8.10;;;;;;;15.29;100.00;92063.00;5126728;27;20047;-71
2022/09/27 06:48:58;;;;;;;10.90;7.93;;;;;;;15.21;100.00;92056.56;5124948;27;20165;-71
2022/09/27 06:51:25;;;;;;;11.45;7.93;;;;;;;15.17;100.00;92052.94;5131522;27;20522;-71
2022/09/27 06:53:52;;;;;;;11.48;8.45;;;;;;;15.11;100.00;92064.38;5131855;27;20090;-71
2022/09/27 06:56:18;;;;;;;11.15;7.63;;;;;;;15.10;100.00;92070.59;5131510;27;20515;-71
2022/09/27 07:01:30;;;;;;;;;;;;;;;15.05;100.00;92075.78;5119628;27;20054;-71
2022/09/27 07:03:57;;;;;;;9.88;7.72;;;;;;;15.00;100.00;92062.88;5131412;27;20375;-71
2022/09/27 07:06:25;;;;;;;20.67;14.25;;;;;;;15.05;100.00;92068.00;5131434;27;20046;-71
2022/09/27 07:08:53;;;;;;;15.68;10.70;;;;;;;15.10;100.00;92073.94;5130974;27;20051;-70
2022/09/27 07:11:20;;;;;;;14.70;9.43;;;;;;;15.15;100.00;92064.59;5130903;27;20120;-71
2022/09/27 07:13:50;;;;;;;10.27;8.32;;;;;;;15.16;100.00;92066.16;5131436;27;20133;-71
2022/09/27 07:16:17;;;;;;;13.63;9.95;;;;;;;15.15;100.00;92074.94;5131477;27;20140;-71
2022/09/27 07:18:44;;;;;;;11.98;9.07;;;;;;;15.16;100.00;92071.31;5130866;27;20493;-70
2022/09/27 07:21:11;;;;;;;10.70;8.98;;;;;;;15.21;100.00;92077.25;5117216;27;20039;-71
2022/09/27 07:23:38;;;;;;;11.13;8.52;;;;;;;15.24;100.00;92075.94;5131644;27;20047;-71
2022/09/27 07:26:07;;;;;;;11.38;9.05;;;;;;;15.26;100.00;92086.00;5130852;27;20409;-71
2022/09/27 07:28:35;;;;;;;11.75;9.10;;;;;;;15.26;100.00;92076.44;5131358;27;20047;-71
2022/09/27 07:31:03;;;;;;;10.98;9.68;;;;;;;15.32;100.00;92074.63;5114644;27;20495;-72
2022/09/27 07:33:31;;;;;;;12.75;9.45;;;;;;;15.36;100.00;92070.44;5118650;27;20107;-71
2022/09/27 07:35:57;;;;;;;12.02;9.52;;;;;;;15.35;100.00;92074.06;5130802;27;20055;-71
2022/09/27 07:38:24;;;;;;;12.90;10.35;;;;;;;15.27;100.00;92074.66;5123089;27;20094;-71
2022/09/27 07:40:51;;;;;;;12.93;10.43;;;;;;;15.31;100.00;92091.94;5130655;27;20445;-71
2022/09/27 07:43:19;;;;;;;11.40;9.55;;;;;;;15.32;100.00;92090.91;5130990;27;20119;-71
2022/09/27 07:45:46;;;;;;;11.48;10.15;;;;;;;15.25;100.00;92074.91;5130715;27;20054;-71
2022/09/27 07:48:15;;;;;;;19.73;12.35;;;;;;;15.32;100.00;92085.72;5130801;27;20051;-71
2022/09/27 07:50:42;;;;;;;25.75;17.70;;;;;;;15.32;100.00;92084.97;5130609;27;20483;-71
2022/09/27 07:53:11;;;;;;;16.30;13.23;;;;;;;15.36;100.00;92079.00;5130911;27;20099;-71
2022/09/27 07:55:38;;;;;;;18.98;13.07;;;;;;;15.40;100.00;92068.09;5113530;27;20047;-71
2022/09/27 07:58:06;;;;;;;19.30;14.05;;;;;;;15.43;100.00;92063.19;5102239;27;20568;-71
2022/09/27 08:00:33;;;;;;;17.98;11.02;;;;;;;15.51;100.00;92072.19;5130729;27;20076;-71
2022/09/27 08:03:04;;;;;;;13.02;10.35;;;;;;;15.59;100.00;92078.59;5126000;27;20048;-71
2022/09/27 08:05:34;;;;;;;12.57;10.32;;;;;;;15.60;100.00;92067.22;5121978;27;20092;-71
2022/09/27 08:08:01;;;;;;;14.07;9.40;;;;;;;15.70;100.00;92077.47;5130425;27;20047;-71
2022/09/27 08:10:30;;;;;;;11.73;9.98;;;;;;;15.79;100.00;92082.88;5130486;27;20122;-71
2022/09/27 08:12:57;;;;;;;11.57;9.48;;;;;;;15.84;100.00;92071.72;5129482;27;20655;-71
2022/09/27 08:15:24;;;;;;;13.18;10.38;;;;;;;15.89;100.00;92077.63;5130822;27;20084;-71
2022/09/27 08:17:50;;;;;;;13.93;10.27;;;;;;;16.00;100.00;92073.19;5130461;27;20418;-70
2022/09/27 08:20:17;;;;;;;13.63;9.73;;;;;;;16.10;100.00;92069.72;5116248;27;20048;-71
2022/09/27 08:22:45;;;;;;;11.98;9.05;;;;;;;16.16;100.00;92060.09;5129353;27;20050;-71
2022/09/27 08:25:13;;;;;;;12.52;8.85;;;;;;;16.25;100.00;92058.44;5130377;27;20111;-70
2022/09/27 08:27:40;;;;;;;14.52;9.35;;;;;;;16.38;100.00;92059.63;5129859;27;20047;-71
2022/09/27 08:30:07;;;;;;;11.73;8.50;;;;;;;16.43;100.00;92054.41;5128555;27;20092;-71
2022/09/27 08:32:35;;;;;;;9.85;7.50;;;;;;;16.50;100.00;92048.91;5126177;27;20055;-71
2022/09/27 08:35:02;;;;;;;12.07;8.20;;;;;;;16.53;100.00;92045.00;5130049;27;20053;-71
2022/09/27 08:37:28;;;;;;;10.35;7.55;;;;;;;16.59;100.00;92036.13;5117878;28;20088;-71
2022/09/27 08:39:57;;;;;;;18.23;11.23;;;;;;;16.61;100.00;92044.38;5119656;28;20092;-70
2022/09/27 08:42:35;;;;;;;18.30;12.35;;;;;;;16.70;100.00;92047.13;5119617;28;20039;-71
2022/09/27 08:45:11;;;;;;;11.52;10.32;;;;;;;16.73;100.00;92044.00;5128705;28;20039;-71
2022/09/27 08:47:41;;;;;;;13.68;10.02;;;;;;;16.81;100.00;92053.75;5130039;28;20141;-71
2022/09/27 08:50:22;;;;;;;15.73;10.40;;;;;;;16.88;100.00;92058.59;5130052;28;20039;-71
2022/09/27 08:52:55;;;;;;;16.65;11.27;;;;;;;16.96;100.00;92057.97;5130006;28;20443;-70
2022/09/27 08:55:30;;;;;;;14.90;10.55;;;;;;;16.95;100.00;92050.50;5129762;28;20036;-71
2022/09/27 08:57:58;;;;;;;16.57;11.43;;;;;;;17.14;100.00;92053.16;5130057;28;20456;-70
2022/09/27 09:00:27;;;;;;;14.43;11.15;;;;;;;17.27;100.00;92043.88;5129909;28;20039;-71
2022/09/27 09:02:55;;;;;;;15.20;9.80;;;;;;;17.41;100.00;92041.38;5129986;28;20100;-71
2022/09/27 09:05:30;;;;;;;17.60;9.85;;;;;;;17.49;100.00;92039.97;5101136;28;20073;-71
2022/09/27 09:08:18;;;;;;;18.17;9.55;;;;;;;17.61;100.00;92048.13;5096061;28;20048;-71
2022/09/27 09:13:57;;;;;;;9.73;7.05;;;;;;;17.86;100.00;92056.59;5100418;28;20137;-70
2022/09/27 09:16:35;;;;;;;9.40;6.35;;;;;;;17.98;100.00;92056.16;5088203;28;20515;-70
2022/09/27 09:19:16;;;;;;;14.23;6.07;;;;;;;18.10;100.00;92055.72;5089072;28;20044;-71
2022/09/27 09:21:52;;;;;;;7.70;6.60;;;;;;;18.23;100.00;92051.63;5088176;28;20048;-70
2022/09/27 09:24:33;;;;;;;8.82;6.45;;;;;;;18.38;100.00;92045.38;5088151;28;20040;-70
2022/09/27 09:27:11;;;;;;;9.05;5.95;;;;;;;18.63;100.00;92043.41;5088153;28;20047;-70
2022/09/27 09:29:57;;;;;;;10.48;5.28;;;;;;;18.58;100.00;92027.88;5088194;28;20059;-71
2022/09/27 09:32:38;;;;;;;9.63;5.40;;;;;;;18.89;100.00;92045.50;5090010;28;20048;-70
2022/09/27 09:35:11;;;;;;;14.27;5.70;;;;;;;19.11;100.00;92038.13;5092064;28;20054;-71
2022/09/27 09:37:41;;;;;;;9.00;4.95;;;;;;;19.30;100.00;92051.75;5091959;28;20047;-70
2022/09/27 09:40:19;;;;;;;11.45;5.55;;;;;;;19.45;100.00;92057.72;5095081;28;20093;-70
2022/09/27 09:42:52;;;;;;;10.35;4.88;;;;;;;19.44;100.00;92056.94;5095078;28;20048;-70
2022/09/27 09:45:22;;;;;;;8.02;4.28;;;;;;;19.44;100.00;92064.00;5094982;28;20097;-70
2022/09/27 09:47:58;;;;;;;5.25;4.43;;;;;;;19.33;100.00;92058.22;5094713;28;20093;-71
2022/09/27 09:50:29;;;;;;;5.88;4.30;;;;;;;19.35;100.00;92063.91;5094816;28;20050;-70
2022/09/27 09:53:04;;;;;;;6.07;4.15;;;;;;;19.41;100.00;92065.34;5094501;28;20101;-70
2022/09/27 09:55:35;;;;;;;6.55;4.45;;;;;;;19.38;100.00;92059.97;5094784;28;20044;-70
2022/09/27 09:58:16;;;;;;;6.75;4.35;;;;;;;19.45;100.00;92058.47;5094433;28;20491;-70
2022/09/27 10:00:44;;;;;;;6.22;4.20;;;;;;;19.57;100.00;92047.56;5094388;28;20101;-70
2022/09/27 10:03:11;;;;;;;5.20;4.13;;;;;;;19.66;100.00;92063.25;5094218;28;20462;-70
2022/09/27 10:05:37;;;;;;;5.90;3.78;;;;;;;19.70;100.00;92066.03;5094672;28;20090;-70
2022/09/27 10:08:11;;;;;;;5.32;3.50;;;;;;;19.74;100.00;92059.97;5094211;28;20040;-70
2022/09/27 10:10:38;;;;;;;6.85;3.72;;;;;;;19.82;100.00;92068.13;5094576;28;20043;-71
2022/09/27 10:13:15;;;;;;;11.63;4.05;;;;;;;19.68;100.00;92062.97;5094054;28;20105;-71
2022/09/27 10:15:42;;;;;;;5.70;4.20;;;;;;;19.71;100.00;92051.94;5094028;28;20491;-70
2022/09/27 10:18:15;;;;;;;5.47;3.80;;;;;;;19.78;100.00;92049.72;5094104;28;20044;-70
2022/09/27 10:20:48;;;;;;;6.00;3.45;;;;;;;19.89;100.00;92039.81;5094022;28;20479;-70
2022/09/27 10:23:18;;;;;;;8.82;3.30;;;;;;;19.88;100.00;92043.50;5094360;28;20044;-70
2022/09/27 10:25:52;;;;;;;5.82;3.28;;;;;;;19.84;100.00;92040.72;5094247;28;20131;-70
2022/09/27 10:28:33;;;;;;;8.00;3.92;;;;;;;19.80;100.00;92034.53;5094166;28;20048;-70
2022/09/27 10:31:02;;;;;;;6.45;3.75;;;;;;;19.86;100.00;92030.00;5093861;28;20393;-70
2022/09/27 10:33:30;;;;;;;7.07;3.78;;;;;;;19.97;100.00;92023.50;5093983;28;20074;-70
2022/09/27 10:35:57;;;;;;;5.80;3.35;;;;;;;20.00;100.00;92030.72;5094098;28;20048;-70
2022/09/27 10:38:27;;;;;;;10.98;3.58;;;;;;;19.97;100.00;92026.13;5097450;27;20048;-71
2022/09/27 10:43:42;;;;;;;5.57;3.90;;;;;;;20.33;100.00;92031.50;5130821;27;20065;-70
2022/09/27 10:46:17;;;;;;;7.63;3.88;;;;;;;20.48;100.00;92020.69;5131862;27;20544;-70
2022/09/27 10:48:44;;;;;;;4.60;3.53;;;;;;;20.71;100.00;92012.81;5132032;27;20040;-70
2022/09/27 10:51:28;;;;;;;7.95;3.63;;;;;;;20.96;100.00;92015.81;5131804;27;20054;-70
2022/09/27 10:53:59;;;;;;;5.35;3.20;;;;;;;21.19;100.00;92013.06;5131876;27;20043;-70
2022/09/27 10:56:28;;;;;;;5.50;4.03;;;;;;;21.48;100.00;92019.59;5131950;27;20130;-70
2022/09/27 10:58:58;;;;;;;5.32;2.90;;;;;;;21.69;100.00;92009.28;5131761;27;20092;-70
2022/09/27 11:01:26;;;;;;;4.20;2.47;;;;;;;21.82;100.00;92006.81;5131339;27;20043;-71
2022/09/27 11:03:57;;;;;;;6.85;2.33;;;;;;;21.89;100.00;92007.91;5131408;27;20046;-70
2022/09/27 11:06:30;;;;;;;3.78;2.60;;;;;;;22.03;100.00;92018.19;5105089;27;20468;-70
2022/09/27 11:09:15;;;;;;;4.07;2.53;;;;;;;22.22;100.00;92011.06;5123099;27;20039;-71
2022/09/27 11:11:44;;;;;;;3.60;2.85;;;;;;;22.24;100.00;92020.16;5131524;27;20103;-71
2022/09/27 11:14:20;;;;;;;5.00;3.10;;;;;;;22.43;100.00;92000.69;5131248;27;20058;-70
2022/09/27 11:17:09;;;;;;;3.78;2.38;;;;;;;22.60;100.00;91999.91;5131279;27;20059;-71
2022/09/27 11:19:52;;;;;;;4.57;2.38;;;;;;;22.54;100.00;92001.91;5123368;27;20047;-71
2022/09/27 11:22:31;;;;;;;4.32;2.15;;;;;;;22.66;100.00;91996.03;5126817;27;20057;-70
2022/09/27 11:25:11;;;;;;;3.80;2.85;;;;;;;22.71;100.00;91991.69;5131063;27;20495;-71
2022/09/27 11:27:49;;;;;;;5.65;2.47;;;;;;;22.73;100.00;91989.53;5131094;27;20051;-71
2022/09/27 11:30:20;;;;;;;3.50;2.70;;;;;;;22.67;100.00;91968.75;5131202;27;20050;-70
2022/09/27 11:33:11;;;;;;;2.97;2.22;;;;;;;22.71;100.00;91968.88;5131051;27;20043;-70
2022/09/27 11:35:51;;;;;;;4.38;2.50;;;;;;;22.63;100.00;91954.75;5131047;27;20417;-71
2022/09/27 11:38:23;;;;;;;4.13;2.65;;;;;;;22.63;100.00;91957.38;5131015;27;20429;-70
2022/09/27 11:41:08;;;;;;;6.28;3.30;;;;;;;22.71;100.00;91941.97;5130578;27;20491;-70
2022/09/27 11:44:01;;;;;;;6.03;3.17;;;;;;;22.75;100.00;91943.63;5130652;27;20580;-70
2022/09/27 11:46:33;;;;;;;4.47;2.30;;;;;;;22.68;100.00;91944.13;5130694;27;20043;-70